Flight Track Log - Related Links

Times and Time Zones

All times are in EDT time to prevent confusion due to time zone crossing. See the FDX584 flight status page for this flight to view local times or setup timezone preferences in your user account.

Time Position Orientation Groundspeed Altitude Reporting Facility
EDT Latitude Longitude Course Direction KTS MPH feet Rate Location/Type
Sun 05:52:49 PM 35.0500 -89.9833 360° North 159 183 1,200  Level KMEM
Sun 05:53:33 PM 35.0833 -89.9833 360° North 165 190 2,700 2,611 Climbing KMEM
Sun 05:54:37 PM 35.1500 -90.0000 348° North 277 319 5,900 3,387 Climbing KMEM
Sun 05:55:37 PM 35.2333 -90.0167 351° North 286 329 9,700 3,190 Climbing KMEM
Sun 05:58:34 PM 35.5514 -90.0381 357° North 398 458 18,500 2,886 Climbing Memphis Center
Sun 05:59:34 PM 35.6578 -90.0403 359° North 410 472 21,100 2,250 Climbing Memphis Center
Sun 06:00:34 PM 35.7850 -90.0447 358° North 410 472 23,000 950 Climbing Memphis Center
Sun 06:01:34 PM 35.9100 -90.0494 358° North 427 491 23,000  Level Memphis Center
Sun 06:02:34 PM 36.0289 -90.0619 355° North 433 498 23,000  Level Memphis Center
Sun 06:03:34 PM 36.1519 -90.0794 353° North 440 506 23,000 50 Level Memphis Center
Sun 06:04:34 PM 36.2750 -90.0969 353° North 445 512 23,100 1,200 Climbing Memphis Center
Sun 06:05:34 PM 36.4003 -90.1147 353° North 445 512 25,400 2,200 Climbing Memphis Center
Sun 06:06:34 PM 36.5275 -90.1322 354° North 450 518 27,500 2,450 Climbing Memphis Center
Sun 06:07:34 PM 36.6567 -90.1525 353° North 455 524 30,300 2,550 Climbing Memphis Center
Sun 06:08:34 PM 36.7817 -90.1731 352° North 460 529 32,600 1,150 Climbing Memphis Center
Sun 06:10:47 PM 37.0386 -90.2047 354° North 453 521 34,000 431 Climbing Kansas City Center
Sun 06:11:49 PM 37.1886 -90.2269 353° North 452 520 34,000  Level Kansas City Center
Sun 06:12:51 PM 37.3136 -90.2453 353° North 451 519 34,000  Level Kansas City Center
Sun 06:13:55 PM 37.4361 -90.2628 354° North 452 520 34,000  Level Kansas City Center
Sun 06:14:56 PM 37.5594 -90.2806 353° North 448 516 34,000  Level Kansas City Center
Sun 06:15:59 PM 37.6839 -90.2994 353° North 449 517 34,000  Level Kansas City Center
Sun 06:17:00 PM 37.8086 -90.3175 353° North 451 519 34,000  Level Kansas City Center
Sun 06:18:02 PM 37.9528 -90.3414 353° North 448 516 34,000  Level Kansas City Center
Sun 06:19:04 PM 38.0869 -90.3608 353° North 449 517 34,000  Level Kansas City Center
Sun 06:20:05 PM 38.2047 -90.3803 353° North 449 517 34,000  Level Kansas City Center
Sun 06:21:07 PM 38.3278 -90.3986 353° North 446 513 34,000  Level Kansas City Center
Sun 06:22:09 PM 38.4614 -90.4197 353° North 446 513 34,000  Level Kansas City Center
Sun 06:23:13 PM 38.5842 -90.4392 353° North 445 512 34,000  Level Kansas City Center
Sun 06:24:15 PM 38.6986 -90.4931 340° North 446 513 34,000  Level Kansas City Center
Sun 06:25:15 PM 38.7706 -90.6219 306° West 450 518 34,000  Level Kansas City Center
Sun 06:26:19 PM 38.8461 -90.7775 302° West 444 511 34,000  Level Kansas City Center
Sun 06:27:19 PM 38.9114 -90.9086 303° West 438 504 34,000  Level Kansas City Center
Sun 06:28:21 PM 38.9739 -91.0400 301° West 435 501 34,000  Level Kansas City Center
Sun 06:29:24 PM 39.0367 -91.1711 302° West 432 497 34,000  Level Kansas City Center
Sun 06:30:25 PM 39.0986 -91.2992 302° West 426 490 34,000  Level Kansas City Center
Sun 06:31:29 PM 39.1594 -91.4283 301° West 424 488 34,000  Level Kansas City Center
Sun 06:32:30 PM 39.2342 -91.5836 302° West 425 489 34,000  Level Kansas City Center
Sun 06:33:32 PM 39.2967 -91.7156 302° West 425 489 34,000  Level Kansas City Center
Sun 06:34:34 PM 39.3569 -91.8458 301° West 425 489 34,000  Level Kansas City Center
Sun 06:35:36 PM 39.4183 -91.9767 301° West 427 491 34,000  Level Kansas City Center
Sun 06:36:37 PM 39.4792 -92.1083 301° West 428 493 34,000  Level Kansas City Center
Sun 06:37:39 PM 39.5403 -92.2406 301° West 429 494 34,000  Level Kansas City Center
Sun 06:38:41 PM 39.5978 -92.3725 300° West 426 490 34,000  Level Kansas City Center
Sun 06:39:45 PM 39.6400 -92.5464 288° West 424 488 34,000 -576 Level Kansas City Center
Sun 06:40:46 PM 39.6517 -92.6950 276° West 418 481 32,800 -1,721 Descending Kansas City Center
Sun 06:41:47 PM 39.6506 -92.8333 269° West 394 453 30,500 -2,208 Descending Kansas City Center
Sun 06:42:51 PM 39.6464 -92.9683 268° West 381 438 28,200 -2,226 Descending Kansas City Center
Sun 06:43:51 PM 39.6450 -93.0978 269° West 369 425 25,900 -2,579 Descending Kansas City Center
Sun 06:44:52 PM 39.6425 -93.2492 269° West 354 407 23,000 -2,448 Descending Kansas City Center
Sun 06:45:56 PM 39.6411 -93.3708 269° West 343 395 20,800 -2,208 Descending Kansas City Center
Sun 06:46:57 PM 39.6381 -93.4867 268° West 334 384 18,400 -2,032 Descending Kansas City Center
Sun 06:48:00 PM 39.6364 -93.6000 269° West 318 366 16,600 -1,984 Descending Kansas City Center
Sun 06:49:01 PM 39.6336 -93.7106 268° West 312 359 14,300 -2,032 Descending Kansas City Center
Sun 06:50:04 PM 39.6303 -93.8394 268° West 307 353 12,400 -1,597 Descending Kansas City Center
Sun 06:51:05 PM 39.6164 -93.9414 260° West 300 345 11,000 -1,200 Descending Kansas City Center
Sun 06:52:09 PM 39.5969 -94.0464 257° West 267 307 9,900 -1,200 Descending Kansas City Center
Sun 06:53:10 PM 39.5792 -94.1344 255° West 263 303 8,500 -1,306 Descending Kansas City Center
Sun 06:54:13 PM 39.5603 -94.2353 256° West 260 299 7,200 -780 Descending Kansas City Center
Sun 06:55:13 PM 39.5433 -94.3206 256° West 255 293 6,900 -537 Descending Kansas City Center
Sun 06:56:16 PM 39.5272 -94.4056 256° West 254 292 6,100 -667 Descending Kansas City Center
Sun 06:57:19 PM 39.5075 -94.5039 255° West 253 291 5,500 -912 Descending Kansas City Center
Sun 06:58:21 PM 39.4903 -94.5897 255° West 256 295 4,200 -738 Descending Kansas City Center
Sun 06:59:21 PM 39.4731 -94.6750 255° West 211 243 4,000 -581 Descending Kansas City Center
Sun 07:00:25 PM 39.4225 -94.6903 193° South 195 224 3,000 -1,008 Descending Kansas City Center
Sun 07:01:26 PM 39.3672 -94.7075 194° South 181 208 1,900 -836 Descending Kansas City Center
Sun 07:02:27 PM 39.3325 -94.7189 194° South 136 157 1,300 -432 Descending Kansas City Center
Sun 07:03:31 PM 39.2978 -94.7272 191° South 124 143 1,000 -281 Descending Kansas City Center

Login

Don't have an account? Register now (free) for customized features, flight alerts, and more!